Time;durP1;ratioP1;P1;durP2;ratioP2;P2;SDS_P1;SDS_P2;PMS_P1;PMS_P2;Temp;Humidity;BMP_temperature;BMP_pressure;BME280_temperature;BME280_humidity;BME280_pressure;Samples;Min_cycle;Max_cycle;Signal;HPM_P1;HPM_P2
2021/04/21 00:00:00;;;;;;;32.60;24.83;;;10.90;99.90;;;;;;5090255;28;20440;-75
2021/04/21 00:02:26;;;;;;;29.87;23.83;;;10.90;99.90;;;;;;5080343;28;20454;-75
2021/04/21 00:04:54;;;;;;;31.13;23.40;;;10.90;99.90;;;;;;5075749;28;20518;-75
2021/04/21 00:07:21;;;;;;;34.73;24.53;;;10.90;99.90;;;;;;5087978;28;20431;-74
2021/04/21 00:09:50;;;;;;;29.73;23.50;;;10.80;99.90;;;;;;5082757;28;20473;-74
2021/04/21 00:12:17;;;;;;;30.63;24.90;;;10.80;99.90;;;;;;5084308;28;20487;-75
2021/04/21 00:14:45;;;;;;;32.17;22.60;;;10.80;99.90;;;;;;5083885;28;20424;-75
2021/04/21 00:17:11;;;;;;;29.37;23.47;;;10.70;99.90;;;;;;5072977;28;20545;-74
2021/04/21 00:19:38;;;;;;;33.33;24.70;;;10.70;99.90;;;;;;5072451;28;20422;-76
2021/04/21 00:22:07;;;;;;;30.37;23.63;;;10.70;99.90;;;;;;5072743;28;20196;-76
2021/04/21 00:24:36;;;;;;;36.33;26.53;;;10.60;99.90;;;;;;5072953;28;20422;-76
2021/04/21 00:27:03;;;;;;;32.93;25.17;;;10.70;99.90;;;;;;5072546;28;20416;-76
2021/04/21 00:29:30;;;;;;;33.80;25.73;;;10.70;99.90;;;;;;5072095;28;20769;-76
2021/04/21 00:31:58;;;;;;;37.43;26.80;;;10.70;99.90;;;;;;5074788;28;20424;-75
2021/04/21 00:34:26;;;;;;;39.80;27.57;;;10.70;99.90;;;;;;5073093;28;20439;-75
2021/04/21 00:36:55;;;;;;;36.33;28.43;;;10.80;99.90;;;;;;5074097;28;20813;-75
2021/04/21 00:39:22;;;;;;;36.43;28.43;;;10.80;99.90;;;;;;5073996;28;20420;-75
2021/04/21 00:42:22;;;;;;;43.77;28.60;;;10.90;99.90;;;;;;5074547;28;20497;-75
2021/04/21 00:45:03;;;;;;;44.60;28.00;;;10.90;99.90;;;;;;5073579;28;20420;-76
2021/04/21 00:47:50;;;;;;;47.93;31.30;;;10.90;99.90;;;;;;5074431;28;20397;-75
2021/04/21 00:50:30;;;;;;;45.47;31.87;;;10.90;99.90;;;;;;5073841;28;20412;-75
2021/04/21 00:53:25;;;;;;;38.87;29.63;;;11.00;99.90;;;;;;5072629;28;20428;-76
2021/04/21 00:56:09;;;;;;;41.60;30.07;;;11.00;99.90;;;;;;5073802;28;20973;-75
2021/04/21 00:59:10;;;;;;;39.30;30.77;;;11.10;99.90;;;;;;5070211;28;20428;-75
2021/04/21 01:01:37;;;;;;;40.60;30.63;;;11.10;99.90;;;;;;5072482;28;20868;-75
2021/04/21 01:04:04;;;;;;;38.70;30.03;;;11.10;99.90;;;;;;5073603;28;20455;-73
2021/04/21 01:06:35;;;;;;;42.97;30.40;;;11.10;99.90;;;;;;5074090;28;20424;-73
2021/04/21 01:09:03;;;;;;;39.73;29.73;;;11.10;99.90;;;;;;5073965;28;20435;-73
2021/04/21 01:11:33;;;;;;;43.10;31.33;;;11.10;99.90;;;;;;5073140;28;20507;-73
2021/04/21 01:14:13;;;;;;;41.53;30.13;;;11.00;99.90;;;;;;5071992;28;20432;-75
2021/04/21 01:16:40;;;;;;;44.30;30.47;;;10.90;99.90;;;;;;5071741;28;20456;-76
2021/04/21 01:19:24;;;;;;;39.97;27.30;;;10.90;99.90;;;;;;5072272;28;20412;-76
2021/04/21 01:21:54;;;;;;;47.30;29.50;;;10.90;99.90;;;;;;5072559;28;20432;-76
2021/04/21 01:24:43;;;;;;;42.17;30.23;;;10.30;99.90;;;;;;5080095;28;20429;-76
2021/04/21 01:27:13;;;;;;;42.03;30.90;;;10.20;99.90;;;;;;5089701;28;20435;-76
2021/04/21 01:29:42;;;;;;;38.70;29.93;;;10.30;99.90;;;;;;5080025;28;20427;-75
2021/04/21 01:32:28;;;;;;;37.20;29.03;;;10.40;99.90;;;;;;5071158;28;20441;-75
2021/04/21 01:34:56;;;;;;;35.40;28.20;;;10.40;99.90;;;;;;5071555;28;20432;-75
2021/04/21 01:37:35;;;;;;;39.93;29.00;;;10.40;99.90;;;;;;5086958;28;20481;-75
2021/04/21 01:40:10;;;;;;;37.90;29.23;;;10.40;99.90;;;;;;5071664;28;20443;-75
2021/04/21 01:42:40;;;;;;;32.90;27.07;;;10.30;99.90;;;;;;5070553;28;20470;-75
2021/04/21 01:45:07;;;;;;;35.87;26.80;;;10.30;99.90;;;;;;5072199;28;20421;-75
2021/04/21 01:47:33;;;;;;;40.53;29.40;;;10.30;99.90;;;;;;5070583;28;20461;-75
2021/04/21 01:50:06;;;;;;;41.00;28.60;;;10.30;99.90;;;;;;5070445;28;20937;-75
2021/04/21 01:52:40;;;;;;;44.60;28.90;;;10.20;99.90;;;;;;5071510;28;20185;-75
2021/04/21 01:55:24;;;;;;;34.53;28.00;;;10.20;99.90;;;;;;5071533;28;20978;-75
2021/04/21 01:58:14;;;;;;;38.57;27.63;;;10.10;99.90;;;;;;5071900;28;20403;-75
2021/04/21 02:00:50;;;;;;;36.63;27.50;;;10.10;99.90;;;;;;5071452;28;20404;-75
2021/04/21 02:03:34;;;;;;;45.43;32.30;;;10.10;99.90;;;;;;5070434;28;20424;-75
2021/04/21 02:06:33;;;;;;;37.03;27.20;;;10.10;99.90;;;;;;5071600;28;20416;-75
2021/04/21 02:09:17;;;;;;;42.50;29.40;;;10.00;99.90;;;;;;5071774;28;20789;-75
2021/04/21 02:11:54;;;;;;;42.30;30.20;;;9.90;99.90;;;;;;5071604;28;20558;-75
2021/04/21 02:14:43;;;;;;;45.80;31.90;;;9.70;99.90;;;;;;5070403;28;20412;-75
2021/04/21 02:17:22;;;;;;;46.60;32.73;;;9.70;99.90;;;;;;5070086;28;20484;-75
2021/04/21 02:19:58;;;;;;;47.53;35.80;;;9.70;99.90;;;;;;5071624;28;20398;-75
2021/04/21 02:22:53;;;;;;;47.53;30.50;;;9.80;99.90;;;;;;5071228;28;20451;-76
2021/04/21 02:25:52;;;;;;;43.70;32.83;;;9.80;99.90;;;;;;5076089;28;20435;-75
2021/04/21 02:28:20;;;;;;;51.07;35.00;;;9.90;99.90;;;;;;5089961;28;20777;-76
2021/04/21 02:31:37;;;;;;;50.53;36.47;;;9.90;99.90;;;;;;5093415;28;20944;-76
2021/04/21 02:34:05;;;;;;;51.43;34.70;;;9.90;99.90;;;;;;5047748;28;20428;-75
2021/04/21 02:37:07;;;;;;;50.80;33.87;;;10.00;99.90;;;;;;5080788;28;20465;-74
2021/04/21 02:39:35;;;;;;;44.47;33.00;;;10.10;99.90;;;;;;5068350;28;20443;-74
2021/04/21 02:42:39;;;;;;;46.77;35.23;;;10.10;99.90;;;;;;5075564;28;20438;-75
2021/04/21 02:45:25;;;;;;;52.37;32.70;;;10.10;99.90;;;;;;5055078;28;20435;-76
2021/04/21 02:48:00;;;;;;;47.07;33.73;;;10.10;99.90;;;;;;5072624;28;21058;-76
2021/04/21 02:50:39;;;;;;;56.00;34.90;;;10.20;99.90;;;;;;5082734;28;20415;-76
2021/04/21 02:53:17;;;;;;;45.80;33.00;;;10.20;99.90;;;;;;5091796;28;20843;-75
2021/04/21 02:55:57;;;;;;;46.00;31.63;;;10.20;99.90;;;;;;5085921;28;20475;-75
2021/04/21 02:58:45;;;;;;;50.20;34.50;;;10.20;99.90;;;;;;5053674;28;20428;-75
2021/04/21 03:01:19;;;;;;;48.20;34.67;;;10.20;99.90;;;;;;5073886;28;20416;-75
2021/04/21 03:04:09;;;;;;;42.90;32.17;;;10.10;99.90;;;;;;5079921;28;20423;-75
2021/04/21 03:06:39;;;;;;;48.87;34.60;;;10.20;99.90;;;;;;5066922;28;21095;-76
2021/04/21 03:09:09;;;;;;;47.60;34.80;;;10.10;99.90;;;;;;5095531;28;20406;-76
2021/04/21 03:11:35;;;;;;;50.53;34.40;;;10.00;99.90;;;;;;5080746;28;20452;-76
2021/04/21 03:14:22;;;;;;;50.77;34.77;;;10.00;99.90;;;;;;5079693;28;21007;-76
2021/04/21 03:17:06;;;;;;;45.70;33.53;;;10.10;99.90;;;;;;5080850;28;20452;-75
2021/04/21 03:19:39;;;;;;;44.80;33.77;;;10.00;99.90;;;;;;5088213;28;20423;-76
2021/04/21 03:22:13;;;;;;;46.00;33.43;;;10.00;99.90;;;;;;5083164;28;20450;-76
2021/04/21 03:24:46;;;;;;;44.60;32.60;;;10.10;99.90;;;;;;5089935;28;20422;-76
2021/04/21 03:27:13;;;;;;;44.30;31.70;;;10.10;99.90;;;;;;5090833;28;20435;-76
2021/04/21 03:29:47;;;;;;;51.57;32.80;;;10.10;99.90;;;;;;5073335;28;20451;-76
2021/04/21 03:32:18;;;;;;;43.10;32.40;;;10.00;99.90;;;;;;5077834;28;20451;-74
2021/04/21 03:34:47;;;;;;;45.13;33.87;;;10.00;99.90;;;;;;5065731;28;20430;-75
2021/04/21 03:37:48;;;;;;;44.93;34.00;;;10.00;99.90;;;;;;5085318;28;20547;-74
2021/04/21 03:40:15;;;;;;;47.57;33.50;;;10.00;99.90;;;;;;5077725;28;20519;-74
2021/04/21 03:42:42;;;;;;;46.20;34.07;;;10.10;99.90;;;;;;5088540;28;20439;-74
2021/04/21 03:45:10;;;;;;;49.47;37.40;;;10.10;99.90;;;;;;5082220;28;20785;-75
2021/04/21 03:47:36;;;;;;;43.90;34.10;;;10.10;99.90;;;;;;5087169;28;20443;-75
2021/04/21 03:50:04;;;;;;;47.07;35.27;;;10.10;99.90;;;;;;5084532;28;20455;-75
2021/04/21 03:52:34;;;;;;;51.63;36.20;;;10.20;99.90;;;;;;5074407;28;20848;-74
2021/04/21 03:55:01;;;;;;;50.27;35.10;;;10.10;99.90;;;;;;5064987;28;20455;-75
2021/04/21 03:57:29;;;;;;;49.00;36.30;;;10.10;99.90;;;;;;5077909;28;20427;-75
2021/04/21 03:59:57;;;;;;;53.90;38.40;;;10.10;99.90;;;;;;5091480;28;20423;-76
2021/04/21 04:02:26;;;;;;;53.10;36.20;;;10.20;99.90;;;;;;5085701;28;20451;-76
2021/04/21 04:04:58;;;;;;;54.20;35.97;;;10.20;99.90;;;;;;5073541;28;20478;-75
2021/04/21 04:07:27;;;;;;;49.63;35.23;;;10.30;99.90;;;;;;5071843;28;20520;-75
2021/04/21 04:09:56;;;;;;;48.47;36.60;;;10.30;99.90;;;;;;5076591;28;20432;-75
2021/04/21 04:12:26;;;;;;;54.97;36.87;;;10.30;99.90;;;;;;5073137;28;20440;-75
2021/04/21 04:14:54;;;;;;;47.17;36.37;;;10.20;99.90;;;;;;5072834;28;20424;-76
2021/04/21 04:17:22;;;;;;;48.90;32.80;;;10.30;99.90;;;;;;5089657;28;20451;-76
2021/04/21 04:19:49;;;;;;;46.10;33.00;;;10.30;99.90;;;;;;5087411;28;20541;-76
2021/04/21 04:22:20;;;;;;;51.83;34.87;;;10.30;99.90;;;;;;5092625;28;20439;-76
2021/04/21 04:24:53;;;;;;;47.50;34.40;;;10.20;99.90;;;;;;5088589;28;20429;-76
2021/04/21 04:27:22;;;;;;;50.53;35.43;;;10.20;99.90;;;;;;5056247;28;20468;-74
2021/04/21 04:29:49;;;;;;;43.30;33.30;;;10.20;99.90;;;;;;5075955;28;20411;-74
2021/04/21 04:32:17;;;;;;;45.00;34.50;;;10.30;99.90;;;;;;5076530;28;20448;-74
2021/04/21 04:34:48;;;;;;;50.50;34.90;;;10.40;99.90;;;;;;5085872;28;20429;-74
2021/04/21 04:37:16;;;;;;;48.90;38.00;;;10.40;99.90;;;;;;5091095;28;20459;-74
2021/04/21 04:39:42;;;;;;;53.80;35.80;;;10.40;99.90;;;;;;5073418;28;20424;-73
2021/04/21 04:42:09;;;;;;;49.67;37.30;;;10.50;99.90;;;;;;5071932;28;20537;-74
2021/04/21 04:44:40;;;;;;;48.83;34.73;;;10.50;99.90;;;;;;5073217;28;20426;-74
2021/04/21 04:47:08;;;;;;;50.77;36.30;;;10.60;99.90;;;;;;5092940;28;20408;-74
2021/04/21 04:50:08;;;;;;;48.17;36.00;;;10.60;99.90;;;;;;5071927;28;20424;-74
2021/04/21 04:52:37;;;;;;;48.53;34.90;;;10.50;99.90;;;;;;5070892;28;20456;-74
2021/04/21 04:55:06;;;;;;;50.73;36.60;;;10.50;99.90;;;;;;5072093;28;20837;-74
2021/04/21 04:57:33;;;;;;;50.80;37.33;;;10.60;99.90;;;;;;5072182;28;21008;-74
2021/04/21 05:00:06;;;;;;;58.13;42.67;;;10.60;99.90;;;;;;5071856;28;20420;-74
2021/04/21 05:02:34;;;;;;;58.90;46.17;;;10.60;99.90;;;;;;5071789;28;20453;-74
2021/04/21 05:05:04;;;;;;;62.40;45.37;;;10.70;99.90;;;;;;5072201;28;20525;-74
2021/04/21 05:07:33;;;;;;;59.67;44.70;;;10.80;99.90;;;;;;5064721;28;20512;-74
2021/04/21 05:10:03;;;;;;;54.90;41.70;;;10.80;99.90;;;;;;5071025;28;20404;-74
2021/04/21 05:12:34;;;;;;;55.03;40.60;;;10.90;99.90;;;;;;5072555;28;20434;-74
2021/04/21 05:15:00;;;;;;;53.27;41.17;;;11.00;99.90;;;;;;5071943;28;20437;-73
2021/04/21 05:18:06;;;;;;;60.13;41.77;;;10.90;99.90;;;;;;5072074;28;20408;-73
2021/04/21 05:20:52;;;;;;;59.33;44.17;;;10.90;99.90;;;;;;5064088;28;20912;-73
2021/04/21 05:23:17;;;;;;;56.03;42.00;;;10.70;99.90;;;;;;5069852;28;20455;-74
2021/04/21 05:26:28;;;;;;;58.67;43.10;;;10.80;99.90;;;;;;5071705;28;20420;-74
2021/04/21 05:29:15;;;;;;;62.73;42.67;;;10.90;99.90;;;;;;5048264;28;20198;-74
2021/04/21 05:32:05;;;;;;;61.57;45.87;;;10.90;99.90;;;;;;5051904;28;20859;-74
2021/04/21 05:34:40;;;;;;;63.80;44.17;;;10.80;99.90;;;;;;5061970;28;20942;-74
2021/04/21 05:37:33;;;;;;;61.50;44.50;;;10.90;99.90;;;;;;5070361;28;20459;-74
2021/04/21 05:40:44;;;;;;;71.90;49.03;;;10.90;99.90;;;;;;5071450;28;20430;-74
2021/04/21 05:43:30;;;;;;;72.20;47.83;;;10.90;99.90;;;;;;5071979;28;20420;-74
2021/04/21 05:46:14;;;;;;;75.07;51.37;;;11.00;99.90;;;;;;5070287;28;20462;-74
2021/04/21 05:49:13;;;;;;;76.40;54.37;;;11.00;99.90;;;;;;5071527;28;20959;-74
2021/04/21 05:51:49;;;;;;;86.83;55.00;;;11.10;99.90;;;;;;5050375;28;20456;-73
2021/04/21 05:54:32;;;;;;;70.73;51.27;;;11.00;99.90;;;;;;5063239;28;20462;-73
2021/04/21 05:57:39;;;;;;;77.63;55.53;;;11.00;99.90;;;;;;5072098;28;20546;-73
2021/04/21 06:00:24;;;;;;;70.80;51.83;;;11.00;99.90;;;;;;5069987;28;20424;-74
2021/04/21 06:02:51;;;;;;;80.93;54.17;;;11.00;99.90;;;;;;5071076;28;20525;-74
2021/04/21 06:05:16;;;;;;;77.57;55.07;;;11.00;99.90;;;;;;5073909;28;20427;-73
2021/04/21 06:07:43;;;;;;;83.57;56.57;;;11.00;99.90;;;;;;5075400;28;20411;-74
2021/04/21 06:10:19;;;;;;;76.80;54.30;;;11.10;99.90;;;;;;5075208;28;20178;-74
2021/04/21 06:12:49;;;;;;;84.27;57.83;;;11.10;99.90;;;;;;5075722;28;20506;-74
2021/04/21 06:15:20;;;;;;;84.53;54.90;;;11.10;99.90;;;;;;5075364;28;20816;-74
2021/04/21 06:17:46;;;;;;;76.73;55.50;;;11.10;99.90;;;;;;5075215;28;20482;-74
2021/04/21 06:20:15;;;;;;;77.77;55.87;;;11.10;99.90;;;;;;5074989;28;20917;-74
2021/04/21 06:22:41;;;;;;;71.90;54.47;;;11.20;99.90;;;;;;5075475;28;20192;-74
2021/04/21 06:25:14;;;;;;;78.33;56.90;;;11.20;99.90;;;;;;5075359;28;20419;-73
2021/04/21 06:27:41;;;;;;;95.27;55.90;;;11.20;99.90;;;;;;5075148;28;20196;-74
2021/04/21 06:30:08;;;;;;;76.33;55.50;;;11.20;99.90;;;;;;5074928;28;20418;-74
2021/04/21 06:32:34;;;;;;;69.57;54.07;;;11.20;99.90;;;;;;5073649;28;20481;-74
2021/04/21 06:35:08;;;;;;;77.93;54.00;;;11.10;99.90;;;;;;5075042;28;20424;-74
2021/04/21 06:37:37;;;;;;;80.10;54.67;;;11.10;99.90;;;;;;5073716;28;20450;-74
2021/04/21 06:40:07;;;;;;;79.30;55.37;;;11.10;99.90;;;;;;5074840;28;20432;-73
2021/04/21 06:42:36;;;;;;;81.37;55.57;;;11.00;99.90;;;;;;5074973;28;20906;-73
2021/04/21 06:45:01;;;;;;;78.53;53.60;;;11.10;99.90;;;;;;5074609;28;20509;-73
2021/04/21 06:47:28;;;;;;;77.70;55.20;;;11.10;99.90;;;;;;5075470;28;20448;-74
2021/04/21 06:50:05;;;;;;;88.67;57.13;;;11.10;99.90;;;;;;5074510;28;20948;-73
2021/04/21 06:52:38;;;;;;;80.13;56.03;;;11.20;99.90;;;;;;5074832;28;20968;-73
2021/04/21 06:55:06;;;;;;;78.43;53.77;;;11.30;99.90;;;;;;5074800;28;20461;-74
2021/04/21 06:57:31;;;;;;;85.63;55.37;;;11.30;99.90;;;;;;5074856;28;20411;-74
2021/04/21 07:00:11;;;;;;;76.37;54.33;;;11.20;99.90;;;;;;5074174;28;20931;-74
2021/04/21 07:02:39;;;;;;;74.37;54.57;;;11.20;99.90;;;;;;5074539;28;20682;-74
2021/04/21 07:05:23;;;;;;;77.20;54.47;;;11.30;99.90;;;;;;5074808;28;20515;-73
2021/04/21 07:07:50;;;;;;;74.00;54.10;;;11.40;99.90;;;;;;5074884;28;20396;-74
2021/04/21 07:10:17;;;;;;;81.17;56.53;;;11.50;99.90;;;;;;5074275;28;20417;-73
2021/04/21 07:12:45;;;;;;;77.63;53.17;;;11.50;99.90;;;;;;5074534;28;20439;-73
2021/04/21 07:15:11;;;;;;;72.63;54.80;;;11.50;99.90;;;;;;5074238;28;20469;-74
2021/04/21 07:17:37;;;;;;;76.23;53.80;;;11.70;99.90;;;;;;5073441;28;20499;-73
2021/04/21 07:20:03;;;;;;;74.03;52.50;;;11.70;99.90;;;;;;5073178;28;20843;-74
2021/04/21 07:22:29;;;;;;;78.27;55.93;;;11.80;99.90;;;;;;5072976;28;20450;-73
2021/04/21 07:24:55;;;;;;;73.20;56.37;;;11.90;99.90;;;;;;5074173;28;20423;-74
2021/04/21 07:27:21;;;;;;;70.47;50.93;;;12.00;99.90;;;;;;5074242;28;20161;-74
2021/04/21 07:29:47;;;;;;;72.90;54.73;;;12.10;99.90;;;;;;5073526;28;20227;-74
2021/04/21 07:32:21;;;;;;;70.73;50.47;;;12.20;99.90;;;;;;5062545;28;20444;-73
2021/04/21 07:34:58;;;;;;;69.07;52.07;;;12.40;99.90;;;;;;5059931;28;20719;-74
2021/04/21 07:37:32;;;;;;;73.57;50.97;;;12.50;99.90;;;;;;5072929;28;20452;-74
2021/04/21 07:39:58;;;;;;;70.30;51.97;;;12.60;99.90;;;;;;5073257;28;20430;-74
2021/04/21 07:42:23;;;;;;;70.50;48.43;;;12.50;99.90;;;;;;5072092;28;20452;-74
2021/04/21 07:44:51;;;;;;;62.90;51.60;;;12.60;99.90;;;;;;5073029;28;20166;-74
2021/04/21 07:47:22;;;;;;;66.13;51.03;;;12.80;99.90;;;;;;5073914;28;20192;-74
2021/04/21 07:49:56;;;;;;;65.47;49.53;;;12.80;99.90;;;;;;5069509;28;20774;-74
2021/04/21 07:52:30;;;;;;;60.73;49.30;;;13.00;99.90;;;;;;5073428;28;20439;-74
2021/04/21 07:55:15;;;;;;;70.53;50.73;;;13.20;99.90;;;;;;5073498;28;20412;-74
2021/04/21 07:57:44;;;;;;;59.47;45.90;;;13.30;99.90;;;;;;5073931;28;20415;-74
2021/04/21 08:00:22;;;;;;;60.57;46.07;;;13.40;99.90;;;;;;5073649;28;20766;-74
2021/04/21 08:02:48;;;;;;;61.57;46.03;;;13.70;99.90;;;;;;5073569;28;20428;-74
2021/04/21 08:05:15;;;;;;;68.60;48.30;;;14.00;99.90;;;;;;5073693;28;20416;-74
2021/04/21 08:07:57;;;;;;;62.13;44.70;;;14.30;99.90;;;;;;5073793;28;20178;-72
2021/04/21 08:10:25;;;;;;;52.27;44.30;;;14.50;99.90;;;;;;5073045;28;20415;-73
2021/04/21 08:12:58;;;;;;;55.43;43.87;;;15.10;99.90;;;;;;5073107;28;20820;-73
2021/04/21 08:15:33;;;;;;;58.53;42.60;;;16.00;99.90;;;;;;5073510;28;20814;-73
2021/04/21 08:18:07;;;;;;;58.60;44.17;;;16.50;99.90;;;;;;5072881;28;20420;-73
2021/04/21 08:20:51;;;;;;;50.53;43.17;;;16.80;99.90;;;;;;5071267;28;20822;-73
2021/04/21 08:23:21;;;;;;;49.43;42.53;;;17.40;99.90;;;;;;5072790;28;20435;-73
2021/04/21 08:25:50;;;;;;;53.93;43.73;;;17.90;99.90;;;;;;5072640;28;20425;-73
2021/04/21 08:28:16;;;;;;;44.47;39.57;;;18.40;99.90;;;;;;5070443;28;20429;-73
2021/04/21 08:30:59;;;;;;;54.07;42.17;;;19.00;99.90;;;;;;5072756;28;20747;-73
2021/04/21 08:33:25;;;;;;;44.90;37.40;;;19.40;99.90;;;;;;5072611;28;20440;-73
2021/04/21 08:35:51;;;;;;;41.37;36.87;;;19.70;99.90;;;;;;5072624;28;20930;-73
2021/04/21 08:38:17;;;;;;;43.87;39.07;;;19.70;99.90;;;;;;5072327;28;20454;-73
2021/04/21 08:40:43;;;;;;;42.67;38.03;;;19.30;99.90;;;;;;5071974;28;20280;-73
2021/04/21 08:43:09;;;;;;;41.97;37.37;;;18.90;99.90;;;;;;5071206;28;20281;-73
2021/04/21 08:45:38;;;;;;;40.77;35.60;;;18.50;99.90;;;;;;5072521;28;20408;-73
2021/04/21 08:48:04;;;;;;;47.17;38.10;;;18.20;99.90;;;;;;5072196;28;20423;-73
2021/04/21 08:50:35;;;;;;;40.47;36.07;;;17.70;99.90;;;;;;5072165;28;20417;-73
2021/04/21 08:53:05;;;;;;;46.83;38.37;;;17.80;99.90;;;;;;5072495;28;20424;-73
2021/04/21 08:55:32;;;;;;;44.60;36.40;;;17.50;99.90;;;;;;5072065;28;20475;-73
2021/04/21 08:57:59;;;;;;;43.30;38.47;;;17.70;99.90;;;;;;5071116;28;20413;-73
2021/04/21 09:00:25;;;;;;;42.97;36.57;;;18.00;99.90;;;;;;5072048;28;20487;-72
2021/04/21 09:02:50;;;;;;;51.73;39.53;;;18.30;99.90;;;;;;5072180;28;20524;-73
2021/04/21 09:05:18;;;;;;;49.70;38.47;;;18.20;99.90;;;;;;5072220;28;20216;-73
2021/04/21 09:07:44;;;;;;;52.13;40.43;;;18.60;99.90;;;;;;5072165;28;20175;-73
2021/04/21 09:10:11;;;;;;;44.23;38.17;;;18.80;99.90;;;;;;5071590;28;20420;-73
2021/04/21 09:12:37;;;;;;;44.50;38.80;;;18.90;99.90;;;;;;5072218;28;20420;-73
2021/04/21 09:15:08;;;;;;;46.30;41.20;;;18.50;99.90;;;;;;5072113;28;20409;-73
2021/04/21 09:17:44;;;;;;;43.60;38.90;;;18.50;99.90;;;;;;5071811;28;20523;-73
2021/04/21 09:20:15;;;;;;;50.80;38.53;;;18.00;99.90;;;;;;5071403;28;20458;-73
2021/04/21 09:23:03;;;;;;;47.23;39.20;;;18.10;99.90;;;;;;5072017;28;20467;-73
2021/04/21 09:25:35;;;;;;;45.40;40.27;;;18.70;99.90;;;;;;5071866;28;20409;-73
2021/04/21 09:28:00;;;;;;;45.63;38.37;;;18.70;99.90;;;;;;5070344;28;20445;-73
2021/04/21 09:30:26;;;;;;;44.97;37.50;;;18.90;99.90;;;;;;5071466;28;20432;-73
2021/04/21 09:32:54;;;;;;;43.10;38.13;;;19.10;99.90;;;;;;5071779;28;20186;-73
2021/04/21 09:35:32;;;;;;;46.73;38.53;;;19.30;99.90;;;;;;5071384;28;20461;-74
2021/04/21 09:38:13;;;;;;;41.77;37.23;;;19.40;99.90;;;;;;5072022;28;20440;-74
2021/04/21 09:40:53;;;;;;;41.90;36.90;;;19.00;99.90;;;;;;5069947;28;20467;-74
2021/04/21 09:43:29;;;;;;;42.40;35.83;;;19.10;99.90;;;;;;5071927;28;20460;-74
2021/04/21 09:46:12;;;;;;;47.43;36.40;;;19.00;99.90;;;;;;5072185;28;20419;-74
2021/04/21 09:48:38;;;;;;;43.40;36.60;;;19.10;99.90;;;;;;5071444;28;20424;-73
2021/04/21 09:51:09;;;;;;;41.47;37.00;;;19.30;99.90;;;;;;5071062;28;20412;-73
2021/04/21 09:53:43;;;;;;;42.40;35.37;;;19.60;99.90;;;;;;5071158;28;20216;-73
2021/04/21 09:56:11;;;;;;;43.33;35.70;;;19.70;99.90;;;;;;5071644;28;20467;-73
2021/04/21 09:58:46;;;;;;;44.33;35.93;;;19.80;99.90;;;;;;5071498;28;20447;-74
2021/04/21 10:01:21;;;;;;;39.23;34.50;;;19.70;99.90;;;;;;5070843;28;20411;-73
2021/04/21 10:04:03;;;;;;;48.10;38.40;;;19.60;99.90;;;;;;5071349;28;20808;-73
2021/04/21 10:06:30;;;;;;;40.80;36.37;;;19.80;99.90;;;;;;5068882;28;20420;-73
2021/04/21 10:08:56;;;;;;;47.57;36.20;;;20.00;99.90;;;;;;5071211;28;20416;-73
2021/04/21 10:11:25;;;;;;;49.07;37.47;;;20.30;99.90;;;;;;5069639;28;20940;-73
2021/04/21 10:13:52;;;;;;;40.50;35.87;;;20.20;99.90;;;;;;5071551;28;20639;-73
2021/04/21 10:16:20;;;;;;;42.03;35.00;;;20.60;99.90;;;;;;5070875;28;20456;-73
2021/04/21 10:18:47;;;;;;;38.43;33.30;;;20.60;99.90;;;;;;5069696;28;20419;-73
2021/04/21 10:21:15;;;;;;;42.60;35.03;;;20.60;99.90;;;;;;5070175;28;20424;-73
2021/04/21 10:23:43;;;;;;;36.23;32.53;;;20.70;99.90;;;;;;5070163;28;20405;-73
2021/04/21 10:26:11;;;;;;;40.13;33.07;;;20.80;99.90;;;;;;5071206;28;20986;-73
2021/04/21 10:28:40;;;;;;;38.47;33.97;;;21.10;99.90;;;;;;5069892;28;20929;-73
2021/04/21 10:31:08;;;;;;;34.50;30.70;;;21.50;99.90;;;;;;5070919;28;20424;-73
2021/04/21 10:33:34;;;;;;;37.37;33.63;;;22.00;99.90;;;;;;5071442;28;20475;-73
2021/04/21 10:36:00;;;;;;;36.50;32.67;;;22.00;99.90;;;;;;5071206;28;20448;-73
2021/04/21 10:38:27;;;;;;;39.10;33.77;;;22.40;99.90;;;;;;5071462;28;20458;-73
2021/04/21 10:41:21;;;;;;;36.67;33.03;;;22.80;99.90;;;;;;5070516;28;20174;-73
2021/04/21 10:43:47;;;;;;;33.73;30.20;;;23.20;97.60;;;;;;5071259;28;20504;-73
2021/04/21 10:46:13;;;;;;;35.37;31.43;;;23.60;96.40;;;;;;5071453;28;20773;-73
2021/04/21 10:48:41;;;;;;;36.50;31.17;;;24.10;96.90;;;;;;5071383;28;20407;-73
2021/04/21 10:51:37;;;;;;;34.37;28.20;;;24.10;93.60;;;;;;5069494;28;20221;-73
2021/04/21 10:54:05;;;;;;;33.43;30.20;;;24.10;90.50;;;;;;5056599;28;20416;-73
2021/04/21 10:56:32;;;;;;;32.83;29.53;;;24.20;91.70;;;;;;5074637;28;20456;-73
2021/04/21 10:59:00;;;;;;;34.47;29.57;;;24.50;85.10;;;;;;5074691;28;20420;-73
2021/04/21 11:01:33;;;;;;;33.03;29.83;;;24.40;84.80;;;;;;5074253;28;20940;-73
2021/04/21 11:04:00;;;;;;;30.63;27.60;;;24.50;81.00;;;;;;5074674;28;21144;-73
2021/04/21 11:06:40;;;;;;;31.30;28.27;;;24.60;78.80;;;;;;5074594;28;20396;-73
2021/04/21 11:09:07;;;;;;;31.60;28.00;;;24.20;77.60;;;;;;5074065;28;20412;-73
2021/04/21 11:11:55;;;;;;;32.40;27.83;;;24.10;74.80;;;;;;5073775;28;20420;-73
2021/04/21 11:14:48;;;;;;;30.20;27.40;;;24.10;76.20;;;;;;5074349;28;20420;-74
2021/04/21 11:17:15;;;;;;;30.43;27.20;;;24.20;72.50;;;;;;5064492;28;20477;-73
2021/04/21 11:19:41;;;;;;;27.53;24.63;;;24.70;70.90;;;;;;5074025;28;20420;-73
2021/04/21 11:22:40;;;;;;;30.13;27.30;;;24.90;68.30;;;;;;5074243;28;20857;-73
2021/04/21 11:25:26;;;;;;;26.40;23.80;;;25.50;70.90;;;;;;5063632;28;20493;-73
2021/04/21 11:27:52;;;;;;;31.63;26.20;;;26.00;64.80;;;;;;5074323;28;20408;-73
2021/04/21 11:30:36;;;;;;;28.37;25.67;;;26.60;61.50;;;;;;5073584;28;20443;-74
2021/04/21 11:33:02;;;;;;;30.70;27.60;;;26.50;59.80;;;;;;5054166;28;20914;-74
2021/04/21 11:35:32;;;;;;;25.33;23.03;;;26.20;59.10;;;;;;5069044;28;20754;-74
2021/04/21 11:37:58;;;;;;;27.93;24.20;;;26.70;58.70;;;;;;5074134;28;20438;-73
2021/04/21 11:40:28;;;;;;;31.00;28.07;;;27.10;57.90;;;;;;5072856;28;20485;-73
2021/04/21 11:43:13;;;;;;;30.53;26.47;;;27.00;57.50;;;;;;5072138;28;20443;-73
2021/04/21 11:45:38;;;;;;;30.77;27.30;;;27.00;57.40;;;;;;5074131;28;20459;-73
2021/04/21 11:48:04;;;;;;;28.53;25.80;;;26.80;57.20;;;;;;5073268;28;20408;-74
2021/04/21 11:50:34;;;;;;;28.87;25.87;;;27.00;56.10;;;;;;5074084;28;20170;-74
2021/04/21 11:53:14;;;;;;;29.20;26.20;;;27.30;56.40;;;;;;5073738;28;20273;-73
2021/04/21 11:55:51;;;;;;;26.17;23.37;;;26.80;57.10;;;;;;5067672;28;20466;-74
2021/04/21 11:58:25;;;;;;;24.83;22.33;;;27.00;55.30;;;;;;5073805;28;20928;-74
2021/04/21 12:00:56;;;;;;;21.23;19.20;;;26.90;54.30;;;;;;5073871;28;20407;-74
2021/04/21 12:03:34;;;;;;;22.53;20.40;;;27.00;52.00;;;;;;5072269;28;20416;-74
2021/04/21 12:06:00;;;;;;;23.07;20.97;;;27.00;51.70;;;;;;5054344;28;20409;-74
2021/04/21 12:08:28;;;;;;;23.03;20.83;;;27.10;52.40;;;;;;5056051;28;20988;-74
2021/04/21 12:10:55;;;;;;;22.90;20.80;;;27.40;52.00;;;;;;5073374;28;20940;-74
2021/04/21 12:13:29;;;;;;;20.70;18.90;;;27.00;51.20;;;;;;5072637;28;20440;-74
2021/04/21 12:15:59;;;;;;;23.30;21.10;;;27.30;50.00;;;;;;5073560;28;20456;-74
2021/04/21 12:18:35;;;;;;;21.83;19.70;;;27.00;50.20;;;;;;5072498;28;20851;-73
2021/04/21 12:21:26;;;;;;;17.10;15.60;;;27.20;49.00;;;;;;5072617;28;20424;-74
2021/04/21 12:24:00;;;;;;;17.63;15.77;;;26.90;48.30;;;;;;5071953;28;20789;-73
2021/04/21 12:26:29;;;;;;;18.10;14.50;;;26.50;47.20;;;;;;5073773;28;20838;-74
2021/04/21 12:29:08;;;;;;;13.73;12.53;;;26.70;48.90;;;;;;5073944;28;20425;-74
2021/04/21 12:31:34;;;;;;;16.10;14.57;;;26.70;48.60;;;;;;5072698;28;20412;-73
2021/04/21 12:34:06;;;;;;;15.80;12.73;;;26.60;47.20;;;;;;5072614;28;20421;-73
2021/04/21 12:36:37;;;;;;;14.03;12.60;;;26.60;47.50;;;;;;5072439;28;20459;-73
2021/04/21 12:39:12;;;;;;;12.50;11.20;;;26.30;46.70;;;;;;5072648;28;20428;-73
2021/04/21 12:41:45;;;;;;;14.17;12.23;;;26.20;46.40;;;;;;5071214;28;20458;-73
2021/04/21 12:44:20;;;;;;;14.87;12.17;;;26.20;45.30;;;;;;5072829;28;20905;-73
2021/04/21 12:46:49;;;;;;;13.50;12.00;;;26.10;46.30;;;;;;5072371;28;20416;-73
2021/04/21 12:49:15;;;;;;;14.17;12.77;;;26.00;46.20;;;;;;5072369;28;20429;-73
2021/04/21 12:51:46;;;;;;;15.03;12.33;;;26.10;45.50;;;;;;5072145;28;20433;-73
2021/04/21 12:54:48;;;;;;;14.63;12.27;;;26.20;45.60;;;;;;5053666;28;20620;-73
2021/04/21 12:57:22;;;;;;;12.53;11.50;;;26.20;46.70;;;;;;5070695;28;20463;-73
2021/04/21 12:59:48;;;;;;;15.07;12.20;;;26.10;44.70;;;;;;5072204;28;20412;-73